createdAt,value
2018-12-25T00:01:00.751Z,92.00
2018-12-25T00:03:49.249Z,92.30
2018-12-25T00:06:30.411Z,92.10
2018-12-25T00:09:11.734Z,92.30
2018-12-25T00:11:53.066Z,92.00
2018-12-25T00:14:33.635Z,92.10
2018-12-25T00:17:02.696Z,92.00
2018-12-25T00:19:50.917Z,92.10
2018-12-25T00:22:32.139Z,91.90
2018-12-25T00:25:13.223Z,92.00
2018-12-25T00:27:52.951Z,92.00
2018-12-25T00:30:41.329Z,91.90
2018-12-25T00:33:22.183Z,91.80
2018-12-25T00:36:02.970Z,91.60
2018-12-25T00:38:44.122Z,91.70
2018-12-25T00:41:25.206Z,91.60
2018-12-25T00:44:05.786Z,91.60
2018-12-25T00:46:47.411Z,91.60
2018-12-25T00:49:28.475Z,91.50
2018-12-25T00:52:09.522Z,91.40
2018-12-25T00:54:50.988Z,90.90
2018-12-25T00:57:32.435Z,91.30
2018-12-25T01:00:12.982Z,91.30
2018-12-25T01:02:53.687Z,91.30
2018-12-25T01:05:34.325Z,91.00
2018-12-25T01:08:15.358Z,91.10
2018-12-25T01:13:38.362Z,91.10
2018-12-25T01:16:26.611Z,90.80
2018-12-25T01:19:08.087Z,90.70
2018-12-25T01:21:49.479Z,90.60
2018-12-25T01:24:30.326Z,90.50
2018-12-25T01:33:18.763Z,90.20
2018-12-25T01:35:59.631Z,91.00
2018-12-25T01:38:40.163Z,90.80
2018-12-25T01:41:21.385Z,90.90
2018-12-25T01:44:02.797Z,90.90
2018-12-25T01:46:43.430Z,90.90
2018-12-25T01:49:31.584Z,90.80
2018-12-25T01:52:07.195Z,90.90
2018-12-25T01:54:47.759Z,90.90
2018-12-25T01:57:28.510Z,90.90
2018-12-25T02:00:09.047Z,90.90
2018-12-25T02:02:49.494Z,90.80
2018-12-25T02:05:30.463Z,90.80
2018-12-25T02:08:11.359Z,90.80
2018-12-25T02:10:51.943Z,90.80
2018-12-25T02:13:32.602Z,91.00
2018-12-25T02:16:13.864Z,90.80
2018-12-25T02:18:55.321Z,90.80
2018-12-25T02:21:36.134Z,90.90
2018-12-25T02:24:17.757Z,90.80
2018-12-25T02:26:58.433Z,90.70
2018-12-25T02:29:39.783Z,90.80
2018-12-25T02:32:21.017Z,90.90
2018-12-25T02:35:01.940Z,90.70
2018-12-25T02:37:42.531Z,90.90
2018-12-25T02:40:23.578Z,90.70
2018-12-25T02:43:04.255Z,90.70
2018-12-25T02:45:45.098Z,90.80
2018-12-25T02:48:26.642Z,90.70
2018-12-25T02:51:07.582Z,90.70
2018-12-25T02:53:49.975Z,90.70
2018-12-25T02:56:30.505Z,90.80
2018-12-25T02:59:11.299Z,90.80
2018-12-25T03:01:52.587Z,90.60
2018-12-25T03:04:33.631Z,90.60
2018-12-25T03:07:14.455Z,90.70
2018-12-25T03:09:55.302Z,90.70
2018-12-25T03:12:36.016Z,90.60
2018-12-25T03:15:16.688Z,90.60
2018-12-25T03:17:57.550Z,90.60
2018-12-25T03:20:38.574Z,90.50
2018-12-25T03:23:19.835Z,90.70
2018-12-25T03:26:01.355Z,90.60
2018-12-25T03:28:41.963Z,90.60
2018-12-25T03:31:22.905Z,90.50
2018-12-25T03:34:03.566Z,90.50
2018-12-25T03:36:44.662Z,90.50
2018-12-25T03:39:25.584Z,90.50
2018-12-25T03:42:06.708Z,90.60
2018-12-25T03:44:47.651Z,90.50
2018-12-25T03:47:28.842Z,90.60
2018-12-25T03:50:11.095Z,90.50
2018-12-25T03:52:52.843Z,90.50
2018-12-25T03:55:33.649Z,90.40
2018-12-25T03:58:14.938Z,90.30
2018-12-25T04:00:56.157Z,90.40
2018-12-25T04:03:37.279Z,90.40
2018-12-25T04:06:18.382Z,90.50
2018-12-25T04:08:59.571Z,90.40
2018-12-25T04:11:40.202Z,90.40
2018-12-25T04:14:21.389Z,90.40
2018-12-25T04:17:02.188Z,90.50
2018-12-25T04:19:43.643Z,90.50
2018-12-25T04:22:25.650Z,90.40
2018-12-25T04:25:07.075Z,90.40
2018-12-25T04:27:48.647Z,90.40
2018-12-25T04:30:29.941Z,90.40
2018-12-25T04:33:10.883Z,90.30
2018-12-25T04:35:51.401Z,90.40
2018-12-25T04:38:32.091Z,90.30
2018-12-25T04:41:13.537Z,90.40
2018-12-25T04:43:54.666Z,90.40
2018-12-25T04:46:36.083Z,90.30
2018-12-25T04:49:16.803Z,90.30
2018-12-25T04:51:57.506Z,90.30
2018-12-25T04:54:38.110Z,90.20
2018-12-25T04:59:59.483Z,90.40
2018-12-25T05:02:40.794Z,90.20
2018-12-25T05:05:22.197Z,90.30
2018-12-25T05:08:03.017Z,90.20
2018-12-25T05:10:44.151Z,90.10
2018-12-25T05:13:25.203Z,90.30
2018-12-25T05:16:05.731Z,90.30
2018-12-25T05:18:46.717Z,90.20
2018-12-25T05:21:27.362Z,90.20
2018-12-25T05:24:08.759Z,90.20
2018-12-25T05:26:50.354Z,90.20
2018-12-25T05:29:31.662Z,90.10
2018-12-25T05:32:12.290Z,90.20
2018-12-25T05:34:53.691Z,90.30
2018-12-25T05:37:34.272Z,90.30
2018-12-25T05:40:14.786Z,90.10
2018-12-25T05:42:55.580Z,90.20
2018-12-25T05:45:37.204Z,90.00
2018-12-25T05:48:18.467Z,90.10
2018-12-25T05:50:59.126Z,90.20
2018-12-25T05:53:39.771Z,89.70
2018-12-25T05:56:21.185Z,88.90
2018-12-25T05:59:01.932Z,89.00
2018-12-25T06:01:43.295Z,88.90
2018-12-25T06:04:23.748Z,89.00
2018-12-25T06:07:05.327Z,89.30
2018-12-25T06:09:45.858Z,89.20
2018-12-25T06:12:26.603Z,89.20
2018-12-25T06:15:07.763Z,89.30
2018-12-25T06:17:48.414Z,89.50
2018-12-25T06:20:29.021Z,89.40
2018-12-25T06:23:10.347Z,89.40
2018-12-25T06:25:51.803Z,89.60
2018-12-25T06:28:33.285Z,89.50
2018-12-25T06:31:14.303Z,89.40
2018-12-25T06:33:55.140Z,89.20
2018-12-25T06:36:35.943Z,89.10
2018-12-25T06:39:16.982Z,88.90
2018-12-25T06:41:57.522Z,89.30
2018-12-25T06:44:39.085Z,89.20
2018-12-25T06:47:20.474Z,89.30
2018-12-25T06:50:01.374Z,89.20
2018-12-25T06:52:42.447Z,88.80
2018-12-25T06:55:23.235Z,89.20
2018-12-25T06:58:04.027Z,88.80
2018-12-25T07:00:44.797Z,88.60
2018-12-25T07:03:25.541Z,88.80
2018-12-25T07:06:06.430Z,88.60
2018-12-25T07:08:47.203Z,88.70
2018-12-25T07:11:28.667Z,88.90
2018-12-25T07:14:09.521Z,88.90
2018-12-25T07:16:50.927Z,88.70
2018-12-25T07:19:32.496Z,88.00
2018-12-25T07:22:13.227Z,88.60
2018-12-25T07:24:54.739Z,88.40
2018-12-25T07:27:38.324Z,88.70
2018-12-25T07:30:19.131Z,88.40
2018-12-25T07:32:59.784Z,88.50
2018-12-25T07:35:40.722Z,88.70
2018-12-25T07:38:21.614Z,88.50
2018-12-25T07:41:02.946Z,88.60
2018-12-25T07:43:44.515Z,88.80
2018-12-25T07:46:25.865Z,88.70
2018-12-25T07:49:06.892Z,88.90
2018-12-25T07:51:48.315Z,88.50
2018-12-25T07:54:29.816Z,88.60
2018-12-25T07:57:11.303Z,88.20
2018-12-25T07:59:51.966Z,88.40
2018-12-25T08:02:33.424Z,88.70
2018-12-25T08:05:14.091Z,88.20
2018-12-25T08:07:54.707Z,88.40
2018-12-25T08:10:35.550Z,88.30
2018-12-25T08:13:16.331Z,88.20
2018-12-25T08:15:57.339Z,87.80
2018-12-25T08:18:40.195Z,88.00
2018-12-25T08:21:29.078Z,88.00
2018-12-25T08:24:04.334Z,88.10
2018-12-25T08:26:45.323Z,88.10
2018-12-25T08:29:26.470Z,87.70
2018-12-25T08:32:07.654Z,87.60
2018-12-25T08:34:48.617Z,87.70
2018-12-25T08:37:29.422Z,87.90
2018-12-25T08:40:10.692Z,87.50
2018-12-25T08:42:52.204Z,87.40
2018-12-25T08:45:33.380Z,87.20
2018-12-25T08:48:14.230Z,87.40
2018-12-25T08:50:55.421Z,87.60
2018-12-25T08:53:36.706Z,87.30
2018-12-25T08:56:17.558Z,87.50
2018-12-25T08:58:58.906Z,87.30
2018-12-25T09:01:39.491Z,87.40
2018-12-25T09:04:20.951Z,87.10
2018-12-25T09:07:02.327Z,87.10
2018-12-25T09:09:43.243Z,86.90
2018-12-25T09:12:24.609Z,86.90
2018-12-25T09:15:05.238Z,87.00
2018-12-25T09:17:46.746Z,86.90
2018-12-25T09:20:27.659Z,86.90
2018-12-25T09:23:09.142Z,86.50
2018-12-25T09:25:50.621Z,86.70
2018-12-25T09:28:31.415Z,86.40
2018-12-25T09:31:12.662Z,86.30
2018-12-25T09:33:54.236Z,86.40
2018-12-25T09:36:35.763Z,85.70
2018-12-25T09:39:16.483Z,84.90
2018-12-25T09:41:57.976Z,83.90
2018-12-25T09:44:38.659Z,83.20
2018-12-25T09:47:21.482Z,82.10
2018-12-25T09:50:03.096Z,80.40
2018-12-25T09:52:43.903Z,78.90
2018-12-25T09:55:24.567Z,76.90
2018-12-25T09:58:05.160Z,75.40
2018-12-25T10:00:46.698Z,75.40
2018-12-25T10:03:27.595Z,74.80
2018-12-25T10:06:08.679Z,74.40
2018-12-25T10:08:49.879Z,74.30
2018-12-25T10:11:29.485Z,73.80
2018-12-25T10:14:17.689Z,72.90
2018-12-25T10:16:58.618Z,72.30
2018-12-25T10:19:39.259Z,71.80
2018-12-25T10:22:20.674Z,72.30
2018-12-25T10:25:01.799Z,72.30
2018-12-25T10:27:42.591Z,63.20
2018-12-25T10:30:23.506Z,66.50
2018-12-25T10:33:04.847Z,67.70
2018-12-25T10:35:46.083Z,68.30
2018-12-25T10:38:27.414Z,68.50
2018-12-25T10:41:08.151Z,69.00
2018-12-25T10:43:49.479Z,69.30
2018-12-25T10:46:30.455Z,69.50
2018-12-25T10:49:11.676Z,70.00
2018-12-25T10:51:52.351Z,69.60
2018-12-25T10:54:33.700Z,70.10
2018-12-25T10:57:14.527Z,69.70
2018-12-25T10:59:55.181Z,70.00
2018-12-25T11:02:36.290Z,70.50
2018-12-25T11:05:17.719Z,70.80
2018-12-25T11:07:59.244Z,70.80
2018-12-25T11:10:40.574Z,71.10
2018-12-25T11:13:21.191Z,71.20
2018-12-25T11:16:02.347Z,70.60
2018-12-25T11:18:49.048Z,70.70
2018-12-25T11:21:25.638Z,70.60
2018-12-25T11:24:06.363Z,71.30
2018-12-25T11:26:47.961Z,71.20
2018-12-25T11:29:28.726Z,71.20
2018-12-25T11:32:10.286Z,70.80
2018-12-25T11:34:51.691Z,70.20
2018-12-25T11:37:33.073Z,70.20
2018-12-25T11:40:13.988Z,70.40
2018-12-25T11:42:55.411Z,70.90
2018-12-25T11:45:36.874Z,70.80
2018-12-25T11:48:18.110Z,71.10
2018-12-25T11:50:58.915Z,71.20
2018-12-25T11:53:40.205Z,71.40
2018-12-25T11:56:09.322Z,72.00
2018-12-25T11:58:57.642Z,71.90
2018-12-25T12:01:39.223Z,71.80
2018-12-25T12:04:20.650Z,72.70
2018-12-25T12:07:01.434Z,73.10
2018-12-25T12:09:43.113Z,72.80
2018-12-25T12:12:23.772Z,73.10
2018-12-25T12:15:04.889Z,73.70
2018-12-25T12:17:45.594Z,74.40
2018-12-25T12:20:26.470Z,74.20
2018-12-25T12:23:07.550Z,73.80
2018-12-25T12:25:48.694Z,74.40
2018-12-25T12:28:29.951Z,74.70
2018-12-25T12:31:11.223Z,74.90
2018-12-25T12:33:51.763Z,74.90
2018-12-25T12:36:32.440Z,74.80
2018-12-25T12:41:53.667Z,75.10
2018-12-25T12:44:34.951Z,75.70
2018-12-25T12:47:16.134Z,75.70
2018-12-25T12:49:56.956Z,76.00
2018-12-25T12:52:45.246Z,76.00
2018-12-25T12:55:26.798Z,76.10
2018-12-25T12:58:07.728Z,76.30
2018-12-25T13:00:48.773Z,76.70
2018-12-25T13:03:30.143Z,76.40
2018-12-25T13:06:10.989Z,76.30
2018-12-25T13:08:52.405Z,76.50
2018-12-25T13:11:33.686Z,76.30
2018-12-25T13:14:14.520Z,76.90
2018-12-25T13:16:55.420Z,77.30
2018-12-25T13:19:36.787Z,77.40
2018-12-25T13:22:06.329Z,77.00
2018-12-25T13:24:54.712Z,77.00
2018-12-25T13:27:36.102Z,77.30
2018-12-25T13:30:17.583Z,77.80
2018-12-25T13:32:58.941Z,78.00
2018-12-25T13:35:39.849Z,77.90
2018-12-25T13:38:21.199Z,77.80
2018-12-25T13:41:11.310Z,77.70
2018-12-25T13:43:59.695Z,78.10
2018-12-25T13:46:41.118Z,78.50
2018-12-25T13:49:21.766Z,78.40
2018-12-25T13:52:03.202Z,78.00
2018-12-25T13:54:43.879Z,77.90
2018-12-25T13:57:23.323Z,78.50
2018-12-25T14:00:11.638Z,78.70
2018-12-25T14:02:52.590Z,78.90
2018-12-25T14:05:33.227Z,78.50
2018-12-25T14:08:14.171Z,78.30
2018-12-25T14:10:55.496Z,78.20
2018-12-25T14:13:36.398Z,78.50
2018-12-25T14:16:17.883Z,79.00
2018-12-25T14:18:59.296Z,78.70
2018-12-25T14:21:40.834Z,78.90
2018-12-25T14:24:21.449Z,79.10
2018-12-25T14:27:02.219Z,78.90
2018-12-25T14:29:43.236Z,79.10
2018-12-25T14:32:23.942Z,79.30
2018-12-25T14:35:05.264Z,79.50
2018-12-25T14:37:46.334Z,79.60
2018-12-25T14:40:15.651Z,79.10
2018-12-25T14:43:04.098Z,79.10
2018-12-25T14:45:45.361Z,78.60
2018-12-25T14:48:26.930Z,79.30
2018-12-25T14:51:08.330Z,79.10
2018-12-25T14:53:49.899Z,78.90
2018-12-25T14:56:30.624Z,78.90
2018-12-25T14:59:11.597Z,78.80
2018-12-25T15:01:51.338Z,79.00
2018-12-25T15:04:39.546Z,79.20
2018-12-25T15:07:20.838Z,78.40
2018-12-25T15:10:01.632Z,78.20
2018-12-25T15:12:42.435Z,78.00
2018-12-25T15:15:23.791Z,78.40
2018-12-25T15:18:05.290Z,78.20
2018-12-25T15:20:46.900Z,78.40
2018-12-25T15:23:28.392Z,79.40
2018-12-25T15:26:09.538Z,79.10
2018-12-25T15:28:50.838Z,78.70
2018-12-25T15:31:31.599Z,79.00
2018-12-25T15:34:12.635Z,79.00
2018-12-25T15:36:53.535Z,78.70
2018-12-25T15:39:34.162Z,78.70
2018-12-25T15:42:14.811Z,78.70
2018-12-25T15:44:56.247Z,78.80
2018-12-25T15:47:37.163Z,78.90
2018-12-25T15:50:17.854Z,78.60
2018-12-25T15:52:58.505Z,78.70
2018-12-25T15:55:39.231Z,78.80
2018-12-25T15:58:20.627Z,78.60
2018-12-25T16:01:01.332Z,78.70
2018-12-25T16:03:42.707Z,79.00
2018-12-25T16:06:24.243Z,79.10
2018-12-25T16:09:05.403Z,78.80
2018-12-25T16:11:46.830Z,78.90
2018-12-25T16:14:28.234Z,79.00
2018-12-25T16:17:09.182Z,78.90
2018-12-25T16:19:50.526Z,79.30
2018-12-25T16:22:32.065Z,79.10
2018-12-25T16:25:13.318Z,79.30
2018-12-25T16:27:54.107Z,79.00
2018-12-25T16:30:34.868Z,79.30
2018-12-25T16:33:16.303Z,79.30
2018-12-25T16:35:57.126Z,78.90
2018-12-25T16:38:37.863Z,79.20
2018-12-25T16:41:18.650Z,78.60
2018-12-25T16:43:59.147Z,78.90
2018-12-25T16:46:40.062Z,78.90
2018-12-25T16:49:21.551Z,79.00
2018-12-25T16:52:02.925Z,79.10
2018-12-25T16:54:44.376Z,79.40
2018-12-25T16:57:25.547Z,79.00
2018-12-25T17:00:06.080Z,78.90
2018-12-25T17:02:47.542Z,79.30
2018-12-25T17:05:28.966Z,79.90
2018-12-25T17:08:09.982Z,80.20
2018-12-25T17:10:50.932Z,81.00
2018-12-25T17:13:31.840Z,81.50
2018-12-25T17:16:12.343Z,82.50
2018-12-25T17:18:51.973Z,83.00
2018-12-25T17:21:33.118Z,82.50
2018-12-25T17:24:14.736Z,82.60
2018-12-25T17:26:55.926Z,82.70
2018-12-25T17:29:36.451Z,82.70
2018-12-25T17:32:17.022Z,82.80
2018-12-25T17:34:57.654Z,82.80
2018-12-25T17:37:38.198Z,82.60
2018-12-25T17:40:19.590Z,82.70
2018-12-25T17:43:00.167Z,83.10
2018-12-25T17:45:40.836Z,83.10
2018-12-25T17:48:21.759Z,83.50
2018-12-25T17:51:03.366Z,82.90
2018-12-25T17:53:44.530Z,82.90
2018-12-25T17:56:25.239Z,82.90
2018-12-25T17:59:05.771Z,83.00
2018-12-25T18:01:46.439Z,83.20
2018-12-25T18:04:27.235Z,83.40
2018-12-25T18:07:08.450Z,83.70
2018-12-25T18:09:49.854Z,84.10
2018-12-25T18:12:31.095Z,84.30
2018-12-25T18:15:12.300Z,84.70
2018-12-25T18:17:53.538Z,85.10
2018-12-25T18:20:34.206Z,84.90
2018-12-25T18:23:14.911Z,85.30
2018-12-25T18:25:55.840Z,85.20
2018-12-25T18:28:37.248Z,85.90
2018-12-25T18:31:18.199Z,86.10
2018-12-25T18:33:59.266Z,86.20
2018-12-25T18:36:40.784Z,86.90
2018-12-25T18:39:22.140Z,86.80
2018-12-25T18:42:03.604Z,86.80
2018-12-25T18:44:44.918Z,87.10
2018-12-25T18:47:25.635Z,87.40
2018-12-25T18:50:06.410Z,87.70
2018-12-25T18:52:46.990Z,90.80
2018-12-25T18:55:27.659Z,90.80
2018-12-25T18:58:08.990Z,90.60
2018-12-25T19:00:50.300Z,90.50
2018-12-25T19:03:30.839Z,90.60
2018-12-25T19:06:11.395Z,90.60
2018-12-25T19:08:53.017Z,90.50
2018-12-25T19:11:34.602Z,90.50
2018-12-25T19:14:15.423Z,90.50
2018-12-25T19:22:17.422Z,89.70
2018-12-25T19:24:58.899Z,90.20
2018-12-25T19:27:39.577Z,90.20
2018-12-25T19:30:20.984Z,90.10
2018-12-25T19:33:01.871Z,90.10
2018-12-25T19:35:42.531Z,90.00
2018-12-25T19:38:23.722Z,90.00
2018-12-25T19:41:04.607Z,89.90
2018-12-25T19:43:45.775Z,90.00
2018-12-25T19:46:26.378Z,90.20
2018-12-25T19:49:07.186Z,89.90
2018-12-25T19:51:48.619Z,89.70
2018-12-25T19:54:29.618Z,90.00
2018-12-25T19:57:11.112Z,89.70
2018-12-25T19:59:51.710Z,89.70
2018-12-25T20:02:32.292Z,89.60
2018-12-25T20:05:12.890Z,89.40
2018-12-25T20:07:54.494Z,89.70
2018-12-25T20:10:35.792Z,89.30
2018-12-25T20:13:17.359Z,89.30
2018-12-25T20:15:58.270Z,89.40
2018-12-25T20:18:39.742Z,89.20
2018-12-25T20:21:21.422Z,89.20
2018-12-25T20:24:03.156Z,89.20
2018-12-25T20:26:44.343Z,89.20
2018-12-25T20:29:25.022Z,89.40
2018-12-25T20:32:05.558Z,89.40
2018-12-25T20:34:46.301Z,89.90
2018-12-25T20:37:27.518Z,89.40
2018-12-25T20:40:08.794Z,89.10
2018-12-25T20:42:49.751Z,89.40
2018-12-25T20:45:30.554Z,89.20
2018-12-25T20:48:12.129Z,89.70
2018-12-25T20:50:53.609Z,89.30
2018-12-25T20:53:34.458Z,89.40
2018-12-25T20:56:36.047Z,89.10
2018-12-25T20:59:32.695Z,89.10
2018-12-25T21:02:13.571Z,88.50
2018-12-25T21:04:54.460Z,88.90
2018-12-25T21:07:35.514Z,89.20
2018-12-25T21:10:16.136Z,88.90
2018-12-25T21:12:56.632Z,89.10
2018-12-25T21:15:37.676Z,89.20
2018-12-25T21:18:19.051Z,88.90
2018-12-25T21:21:00.534Z,88.80
2018-12-25T21:23:41.666Z,89.00
2018-12-25T21:26:22.861Z,88.80
2018-12-25T21:29:04.234Z,88.90
2018-12-25T21:31:44.822Z,88.70
2018-12-25T21:34:25.510Z,88.40
2018-12-25T21:37:07.022Z,88.60
2018-12-25T21:39:47.729Z,88.50
2018-12-25T21:42:28.698Z,88.40
2018-12-25T21:45:09.418Z,88.50
2018-12-25T21:47:50.199Z,88.30
2018-12-25T21:50:31.492Z,88.20
2018-12-25T21:53:11.270Z,88.30
2018-12-25T21:55:52.498Z,88.30
2018-12-25T21:58:33.344Z,88.30
2018-12-25T22:01:14.337Z,88.20
2018-12-25T22:03:55.270Z,88.10
2018-12-25T22:06:36.785Z,88.00
2018-12-25T22:11:55.783Z,87.70
2018-12-25T22:14:36.714Z,87.60
2018-12-25T22:17:18.210Z,87.20
2018-12-25T22:19:47.183Z,87.00
2018-12-25T22:22:35.546Z,88.00
2018-12-25T22:25:17.070Z,87.00
2018-12-25T22:27:57.862Z,87.10
2018-12-25T22:30:39.415Z,87.30
2018-12-25T22:33:21.045Z,86.50
2018-12-25T22:36:02.378Z,86.40
2018-12-25T22:38:43.046Z,86.00
2018-12-25T22:41:24.234Z,85.10
2018-12-25T22:44:05.239Z,83.40
2018-12-25T22:46:46.226Z,82.60
2018-12-25T22:49:29.907Z,81.40
2018-12-25T22:52:11.260Z,80.50
2018-12-25T22:54:52.732Z,79.30
2018-12-25T22:57:21.997Z,78.60
2018-12-25T23:00:11.281Z,78.80
2018-12-25T23:02:52.793Z,77.90
2018-12-25T23:05:33.419Z,77.10
2018-12-25T23:08:14.697Z,76.90
2018-12-25T23:10:55.774Z,77.70
2018-12-25T23:13:36.727Z,76.40
2018-12-25T23:16:17.999Z,75.90
2018-12-25T23:18:59.010Z,76.00
2018-12-25T23:21:40.370Z,76.10
2018-12-25T23:24:21.190Z,75.90
2018-12-25T23:27:02.666Z,75.40
2018-12-25T23:29:43.617Z,75.60
2018-12-25T23:32:24.320Z,75.60
2018-12-25T23:35:05.407Z,75.70
2018-12-25T23:37:46.886Z,75.30
2018-12-25T23:40:28.062Z,75.40
2018-12-25T23:43:08.851Z,75.40
2018-12-25T23:45:50.310Z,75.70
2018-12-25T23:48:30.881Z,75.40
2018-12-25T23:51:11.801Z,75.20
2018-12-25T23:53:52.365Z,75.70
2018-12-25T23:56:33.118Z,76.10
2018-12-25T23:59:14.298Z,76.80
